createdAt,value
2023-01-21T00:01:09.594Z,100279.38
2023-01-21T00:03:37.669Z,100279.78
2023-01-21T00:06:08.086Z,100271.72
2023-01-21T00:08:36.006Z,100274.56
2023-01-21T00:11:07.569Z,100261.84
2023-01-21T00:13:36.338Z,100270.44
2023-01-21T00:16:05.105Z,100276.47
2023-01-21T00:18:34.247Z,100287.16
2023-01-21T00:21:02.743Z,100283.72
2023-01-21T00:23:32.075Z,100300.59
2023-01-21T00:26:00.341Z,100298.63
2023-01-21T00:28:29.861Z,100295.78
2023-01-21T00:30:59.068Z,100297.59
2023-01-21T00:33:27.548Z,100299.44
2023-01-21T00:36:01.677Z,100303.44
2023-01-21T00:38:31.161Z,100305.06
2023-01-21T00:41:03.428Z,100305.72
2023-01-21T00:43:31.458Z,100299.84
2023-01-21T00:45:59.445Z,100299.69
2023-01-21T00:48:28.573Z,100303.03
2023-01-21T00:51:00.563Z,100307.59
2023-01-21T00:53:29.498Z,100309.59
2023-01-21T00:56:01.580Z,100300.16
2023-01-21T00:58:29.972Z,100311.13
2023-01-21T01:01:04.544Z,100311.25
2023-01-21T01:03:32.886Z,100314.41
2023-01-21T01:06:04.810Z,100316.41
2023-01-21T01:08:33.111Z,100319.22
2023-01-21T01:11:03.139Z,100327.56
2023-01-21T01:13:31.402Z,100321.97
2023-01-21T01:16:00.290Z,100324.91
2023-01-21T01:18:30.258Z,100326.13
2023-01-21T01:20:58.522Z,100328.50
2023-01-21T01:23:27.113Z,100330.38
2023-01-21T01:25:59.669Z,100339.31
2023-01-21T01:28:29.606Z,100330.59
2023-01-21T01:30:58.627Z,100342.31
2023-01-21T01:33:27.929Z,100339.06
2023-01-21T01:35:55.949Z,100325.88
2023-01-21T01:38:24.292Z,100331.28
2023-01-21T01:40:53.791Z,100339.13
2023-01-21T01:43:24.174Z,100342.09
2023-01-21T01:45:54.080Z,100342.88
2023-01-21T01:48:27.447Z,100354.78
2023-01-21T01:50:57.712Z,100352.75
2023-01-21T01:53:28.008Z,100348.25
2023-01-21T01:55:56.514Z,100337.06
2023-01-21T01:58:24.730Z,100361.44
2023-01-21T02:00:54.004Z,100367.25
2023-01-21T02:03:39.538Z,100357.94
2023-01-21T02:06:08.018Z,100355.41
2023-01-21T02:08:36.522Z,100349.09
2023-01-21T02:11:11.899Z,100350.34
2023-01-21T02:13:41.543Z,100320.91
2023-01-21T02:16:32.796Z,100337.16
2023-01-21T02:19:13.501Z,100322.19
2023-01-21T02:21:55.717Z,100326.66
2023-01-21T02:25:09.388Z,100324.59
2023-01-21T02:27:58.446Z,100322.78
2023-01-21T02:30:43.006Z,100318.19
2023-01-21T02:33:28.929Z,100317.25
2023-01-21T02:36:05.815Z,100334.84
2023-01-21T02:38:42.163Z,100341.38
2023-01-21T02:41:22.514Z,100329.31
2023-01-21T02:43:58.506Z,100321.47
2023-01-21T02:46:32.759Z,100314.59
2023-01-21T02:49:08.445Z,100315.66
2023-01-21T02:51:36.610Z,100321.19
2023-01-21T02:54:14.759Z,100324.13
2023-01-21T02:56:44.716Z,100321.06
2023-01-21T02:59:14.072Z,100326.59
2023-01-21T03:01:52.078Z,100312.53
2023-01-21T03:04:52.857Z,100322.19
2023-01-21T03:07:28.713Z,100324.94
2023-01-21T03:10:01.361Z,100320.47
2023-01-21T03:12:35.915Z,100322.16
2023-01-21T03:15:26.277Z,100324.59
2023-01-21T03:18:01.082Z,100324.09
2023-01-21T03:20:34.236Z,100331.69
2023-01-21T03:23:06.503Z,100322.66
2023-01-21T03:25:36.229Z,100322.13
2023-01-21T03:28:09.092Z,100320.22
2023-01-21T03:30:38.449Z,100308.19
2023-01-21T03:33:08.690Z,100313.84
2023-01-21T03:35:42.658Z,100319.97
2023-01-21T03:38:15.969Z,100312.50
2023-01-21T03:40:49.841Z,100316.16
2023-01-21T03:43:17.909Z,100306.16
2023-01-21T03:45:50.518Z,100307.91
2023-01-21T03:48:25.316Z,100308.03
2023-01-21T03:51:00.537Z,100311.78
2023-01-21T03:53:28.938Z,100307.50
2023-01-21T03:55:56.851Z,100322.03
2023-01-21T03:58:24.730Z,100322.28
2023-01-21T04:00:52.676Z,100321.56
2023-01-21T04:03:20.554Z,100323.31
2023-01-21T04:05:48.451Z,100321.66
2023-01-21T04:08:17.728Z,100323.84
2023-01-21T04:10:45.728Z,100312.72
2023-01-21T04:13:13.603Z,100320.47
2023-01-21T04:15:41.481Z,100319.88
2023-01-21T04:18:09.380Z,100324.97
2023-01-21T04:20:38.321Z,100332.72
2023-01-21T04:23:06.253Z,100329.69
2023-01-21T04:25:35.522Z,100330.38
2023-01-21T04:28:03.415Z,100343.44
2023-01-21T04:30:31.396Z,100347.03
2023-01-21T04:32:59.316Z,100334.47
2023-01-21T04:35:27.473Z,100341.13
2023-01-21T04:37:55.433Z,100350.84
2023-01-21T04:40:23.326Z,100352.44
2023-01-21T04:42:52.640Z,100354.91
2023-01-21T04:45:20.885Z,100352.28
2023-01-21T04:47:48.843Z,100359.88
2023-01-21T04:50:18.064Z,100368.81
2023-01-21T04:52:46.087Z,100364.91
2023-01-21T04:55:14.021Z,100364.81
2023-01-21T04:57:41.917Z,100365.28
2023-01-21T05:00:12.395Z,100370.16
2023-01-21T05:02:40.337Z,100367.84
2023-01-21T05:05:08.829Z,100319.50
2023-01-21T05:07:36.783Z,100373.38
2023-01-21T05:10:05.283Z,100362.09
2023-01-21T05:12:33.258Z,100368.19
2023-01-21T05:15:01.175Z,100378.28
2023-01-21T05:17:30.467Z,100379.97
2023-01-21T05:19:58.366Z,100388.97
2023-01-21T05:22:26.311Z,100403.03
2023-01-21T05:24:54.212Z,100405.72
2023-01-21T05:27:22.088Z,100400.81
2023-01-21T05:29:50.065Z,100399.84
2023-01-21T05:32:17.981Z,100397.81
2023-01-21T05:34:47.275Z,100397.53
2023-01-21T05:37:15.186Z,100397.81
2023-01-21T05:39:43.646Z,100391.13
2023-01-21T05:42:11.646Z,100388.78
2023-01-21T05:44:39.557Z,100396.03
2023-01-21T05:47:08.839Z,100384.25
2023-01-21T05:49:37.058Z,100381.06
2023-01-21T05:52:06.667Z,100374.31
2023-01-21T05:54:34.567Z,100385.16
2023-01-21T05:57:02.477Z,100383.31
2023-01-21T05:59:30.381Z,100370.13
2023-01-21T06:01:58.285Z,100377.03
2023-01-21T06:04:30.656Z,100371.75
2023-01-21T06:06:58.729Z,100377.59
2023-01-21T06:09:28.001Z,100380.69
2023-01-21T06:11:55.916Z,100379.94
2023-01-21T06:14:23.807Z,100377.91
2023-01-21T06:16:51.702Z,100385.09
2023-01-21T06:19:19.786Z,100380.44
2023-01-21T06:21:47.708Z,100396.44
2023-01-21T06:24:15.625Z,100403.28
2023-01-21T06:26:44.939Z,100389.50
2023-01-21T06:29:12.825Z,100404.63
2023-01-21T06:31:41.249Z,100406.13
2023-01-21T06:34:10.974Z,100401.25
2023-01-21T06:36:38.982Z,100402.59
2023-01-21T06:39:06.852Z,100410.03
2023-01-21T06:41:34.730Z,100407.28
2023-01-21T06:44:04.267Z,100413.50
2023-01-21T06:46:32.211Z,100418.59
2023-01-21T06:49:00.195Z,100424.84
2023-01-21T06:51:28.160Z,100422.59
2023-01-21T06:53:56.194Z,100409.66
2023-01-21T06:56:24.775Z,100420.28
2023-01-21T06:58:52.662Z,100411.28
2023-01-21T07:01:21.968Z,100416.75
2023-01-21T07:03:49.901Z,100417.13
2023-01-21T07:06:17.806Z,100425.50
2023-01-21T07:08:45.745Z,100417.50
2023-01-21T07:11:13.618Z,100419.69
2023-01-21T07:13:41.522Z,100409.94
2023-01-21T07:16:10.047Z,100423.38
2023-01-21T07:18:39.406Z,100420.03
2023-01-21T07:21:07.299Z,100419.28
2023-01-21T07:23:35.217Z,100422.50
2023-01-21T07:26:03.128Z,100422.06
2023-01-21T07:28:31.044Z,100410.44
2023-01-21T07:31:00.114Z,100426.81
2023-01-21T07:33:28.220Z,100430.19
2023-01-21T07:35:57.544Z,100396.75
2023-01-21T07:38:25.538Z,100421.44
2023-01-21T07:40:53.428Z,100430.91
2023-01-21T07:43:21.342Z,100430.56
2023-01-21T07:45:49.523Z,100428.16
2023-01-21T07:48:17.460Z,100425.75
2023-01-21T07:50:45.427Z,100425.22
2023-01-21T07:53:15.032Z,100434.44
2023-01-21T07:55:43.019Z,100424.78
2023-01-21T07:58:11.031Z,100433.56
2023-01-21T08:00:39.602Z,100430.41
2023-01-21T08:03:07.530Z,100440.41
2023-01-21T08:05:35.523Z,100432.78
2023-01-21T08:08:03.422Z,100423.47
2023-01-21T08:10:32.699Z,100421.97
2023-01-21T08:13:01.967Z,100432.81
2023-01-21T08:15:29.912Z,100429.09
2023-01-21T08:17:57.822Z,100428.56
2023-01-21T08:20:25.752Z,100421.69
2023-01-21T08:22:53.722Z,100430.06
2023-01-21T08:25:21.609Z,100423.94
2023-01-21T08:27:50.931Z,100427.41
2023-01-21T08:30:19.224Z,100422.44
2023-01-21T08:32:47.259Z,100433.13
2023-01-21T08:35:15.577Z,100426.63
2023-01-21T08:37:43.669Z,100430.25
2023-01-21T08:40:12.815Z,100425.22
2023-01-21T08:42:40.759Z,100432.97
2023-01-21T08:45:12.367Z,100434.03
2023-01-21T08:47:41.672Z,100424.22
2023-01-21T08:50:11.792Z,100425.91
2023-01-21T08:52:39.750Z,100422.53
2023-01-21T08:55:08.442Z,100416.59
2023-01-21T08:57:36.367Z,100418.44
2023-01-21T09:00:05.451Z,100417.16
2023-01-21T09:02:34.739Z,100411.66
2023-01-21T09:05:02.649Z,100410.56
2023-01-21T09:07:30.513Z,100417.63
2023-01-21T09:09:58.387Z,100398.94
2023-01-21T09:12:26.323Z,100408.72
2023-01-21T09:14:54.232Z,100392.53
2023-01-21T09:17:22.841Z,100400.03
2023-01-21T09:19:53.593Z,100399.78
2023-01-21T09:22:22.514Z,100398.84
2023-01-21T09:24:50.411Z,100399.69
2023-01-21T09:27:18.324Z,100389.72
2023-01-21T09:29:46.754Z,100389.63
2023-01-21T09:32:14.688Z,100377.44
2023-01-21T09:34:42.595Z,100385.22
2023-01-21T09:37:11.886Z,100375.38
2023-01-21T09:39:39.779Z,100387.91
2023-01-21T09:42:18.961Z,100374.56
2023-01-21T09:44:50.426Z,100370.34
2023-01-21T09:47:23.746Z,100365.63
2023-01-21T09:49:55.383Z,100363.03
2023-01-21T09:52:30.401Z,100348.53
2023-01-21T09:54:59.679Z,100341.63
2023-01-21T09:57:53.959Z,100355.69
2023-01-21T10:00:34.800Z,100345.13
2023-01-21T10:03:14.161Z,100339.56
2023-01-21T10:06:11.915Z,100337.22
2023-01-21T10:09:04.886Z,100319.09
2023-01-21T10:11:48.387Z,100330.66
2023-01-21T10:14:30.214Z,100324.56
2023-01-21T10:17:07.123Z,100321.50
2023-01-21T10:19:39.956Z,100318.41
2023-01-21T10:22:13.546Z,100325.38
2023-01-21T10:24:47.726Z,100325.13
2023-01-21T10:27:19.703Z,100324.53
2023-01-21T10:29:49.310Z,100325.91
2023-01-21T10:32:22.378Z,100317.47
2023-01-21T10:34:53.039Z,100296.91
2023-01-21T10:37:27.845Z,100303.09
2023-01-21T10:40:04.313Z,100302.59
2023-01-21T10:42:58.620Z,100296.97
2023-01-21T10:45:38.695Z,100302.44
2023-01-21T10:48:16.785Z,100300.41
2023-01-21T10:50:54.568Z,100307.47
2023-01-21T10:53:30.575Z,100309.50
2023-01-21T10:56:12.773Z,100305.06
2023-01-21T10:58:46.143Z,100301.66
2023-01-21T11:01:19.805Z,100298.50
2023-01-21T11:03:51.030Z,100290.66
2023-01-21T11:06:20.772Z,100291.97
2023-01-21T11:08:52.397Z,100298.63
2023-01-21T11:11:27.923Z,100280.63
2023-01-21T11:13:56.530Z,100275.53
2023-01-21T11:16:36.671Z,100297.31
2023-01-21T11:19:06.690Z,100287.38
2023-01-21T11:21:40.064Z,100299.34
2023-01-21T11:24:21.528Z,100306.53
2023-01-21T11:26:54.608Z,100303.34
2023-01-21T11:29:24.315Z,100289.84
2023-01-21T11:31:54.152Z,100286.84
2023-01-21T11:34:24.172Z,100277.41
2023-01-21T11:37:00.037Z,100287.56
2023-01-21T11:39:29.979Z,100293.31
2023-01-21T11:42:04.339Z,100259.09
2023-01-21T11:44:33.590Z,100287.78
2023-01-21T11:47:01.873Z,100292.06
2023-01-21T11:49:32.842Z,100292.59
2023-01-21T11:52:18.729Z,100285.91
2023-01-21T11:54:47.766Z,100286.53
2023-01-21T11:57:26.977Z,100286.75
2023-01-21T11:59:59.371Z,100296.31
2023-01-21T12:02:30.831Z,100300.16
2023-01-21T12:05:02.942Z,100291.84
2023-01-21T12:07:33.785Z,100288.44
2023-01-21T12:10:09.701Z,100261.69
2023-01-21T12:12:51.103Z,100277.09
2023-01-21T12:15:34.585Z,100275.22
2023-01-21T12:18:11.541Z,100263.44
2023-01-21T12:20:46.923Z,100265.13
2023-01-21T12:23:29.411Z,100278.84
2023-01-21T12:26:01.290Z,100275.50
2023-01-21T12:28:50.574Z,100270.31
2023-01-21T12:31:26.155Z,100273.00
2023-01-21T12:34:00.279Z,100281.00
2023-01-21T12:36:31.128Z,100287.78
2023-01-21T12:39:15.867Z,100270.72
2023-01-21T12:41:49.337Z,100269.88
2023-01-21T12:44:28.022Z,100275.06
2023-01-21T12:47:01.413Z,100275.06
2023-01-21T12:49:45.898Z,100284.59
2023-01-21T12:52:17.811Z,100295.22
2023-01-21T12:54:54.670Z,100298.75
2023-01-21T12:57:28.918Z,100310.03
2023-01-21T13:00:03.907Z,100302.00
2023-01-21T13:02:36.955Z,100301.69
2023-01-21T13:05:13.763Z,100309.47
2023-01-21T13:07:47.959Z,100318.13
2023-01-21T13:10:21.036Z,100314.00
2023-01-21T13:12:59.654Z,100312.09
2023-01-21T13:15:33.453Z,100301.50
2023-01-21T13:18:05.931Z,100308.97
2023-01-21T13:20:40.394Z,100320.00
2023-01-21T13:23:15.155Z,100321.28
2023-01-21T13:25:51.761Z,100311.50
2023-01-21T13:28:29.818Z,100312.09
2023-01-21T13:31:07.916Z,100325.31
2023-01-21T13:33:45.937Z,100326.31
2023-01-21T13:36:27.644Z,100329.16
2023-01-21T13:39:05.108Z,100334.38
2023-01-21T13:41:51.630Z,100329.44
2023-01-21T13:44:46.525Z,100328.09
2023-01-21T13:47:31.042Z,100326.81
2023-01-21T13:50:18.185Z,100329.69
2023-01-21T13:53:00.170Z,100326.56
2023-01-21T13:55:44.193Z,100339.44
2023-01-21T13:58:15.784Z,100332.56
2023-01-21T14:00:47.387Z,100335.53
2023-01-21T14:03:26.675Z,100338.25
2023-01-21T14:06:01.902Z,100347.78
2023-01-21T14:08:34.635Z,100346.41
2023-01-21T14:11:07.512Z,100346.97
2023-01-21T14:14:25.898Z,100342.59
2023-01-21T14:17:18.812Z,100349.25
2023-01-21T14:20:09.994Z,100338.19
2023-01-21T14:23:08.248Z,100361.34
2023-01-21T14:25:51.376Z,100357.63
2023-01-21T14:28:27.412Z,100358.84
2023-01-21T14:31:02.559Z,100362.97
2023-01-21T14:33:39.961Z,100362.00
2023-01-21T14:36:18.498Z,100359.31
2023-01-21T14:38:57.796Z,100352.16
2023-01-21T14:41:25.758Z,100354.25
2023-01-21T14:43:54.302Z,100353.31
2023-01-21T14:46:28.866Z,100350.06
2023-01-21T14:49:08.086Z,100346.19
2023-01-21T14:51:39.283Z,100354.44
2023-01-21T14:54:13.343Z,100363.09
2023-01-21T14:56:41.199Z,100364.31
2023-01-21T14:59:28.784Z,100357.66
2023-01-21T15:02:01.570Z,100367.91
2023-01-21T15:04:34.371Z,100358.94
2023-01-21T15:07:10.267Z,100362.50
2023-01-21T15:09:43.365Z,100362.06
2023-01-21T15:12:18.981Z,100361.81
2023-01-21T15:14:47.371Z,100366.34
2023-01-21T15:17:46.492Z,100344.78
2023-01-21T15:20:47.576Z,100365.75
2023-01-21T15:23:39.643Z,100370.00
2023-01-21T15:26:21.450Z,100366.06
2023-01-21T15:28:52.081Z,100357.72
2023-01-21T15:31:44.246Z,100370.00
2023-01-21T15:34:16.145Z,100367.38
2023-01-21T15:36:47.379Z,100371.06
2023-01-21T15:39:19.091Z,100371.03
2023-01-21T15:42:01.024Z,100379.16
2023-01-21T15:44:48.612Z,100365.31
2023-01-21T15:47:43.165Z,100377.06
2023-01-21T15:50:21.982Z,100380.38
2023-01-21T15:53:04.150Z,100374.78
2023-01-21T15:55:51.412Z,100377.00
2023-01-21T15:58:27.060Z,100369.19
2023-01-21T16:01:05.844Z,100383.34
2023-01-21T16:03:39.559Z,100386.88
2023-01-21T16:06:23.837Z,100381.03
2023-01-21T16:09:04.621Z,100379.56
2023-01-21T16:11:53.947Z,100378.84
2023-01-21T16:14:32.339Z,100377.28
2023-01-21T16:17:13.507Z,100379.88
2023-01-21T16:19:45.442Z,100378.13
2023-01-21T16:22:16.278Z,100389.69
2023-01-21T16:24:48.568Z,100391.44
2023-01-21T16:27:23.986Z,100389.88
2023-01-21T16:29:56.767Z,100396.44
2023-01-21T16:32:24.857Z,100400.00
2023-01-21T16:34:52.730Z,100406.22
2023-01-21T16:37:23.599Z,100399.38
2023-01-21T16:39:55.497Z,100418.75
2023-01-21T16:42:36.252Z,100414.78
2023-01-21T16:45:10.430Z,100417.06
2023-01-21T16:47:38.643Z,100421.00
2023-01-21T16:50:19.724Z,100423.75
2023-01-21T16:52:47.882Z,100421.97
2023-01-21T16:55:19.887Z,100428.53
2023-01-21T16:57:52.137Z,100432.78
2023-01-21T17:00:23.698Z,100429.75
2023-01-21T17:02:52.842Z,100425.81
2023-01-21T17:05:20.873Z,100442.47
2023-01-21T17:07:52.930Z,100443.31
2023-01-21T17:10:23.662Z,100449.44
2023-01-21T17:12:57.031Z,100462.84
2023-01-21T17:15:29.836Z,100463.25
2023-01-21T17:17:59.709Z,100465.34
2023-01-21T17:20:39.999Z,100466.41
2023-01-21T17:23:11.321Z,100471.97
2023-01-21T17:25:39.446Z,100473.03
2023-01-21T17:28:19.118Z,100480.13
2023-01-21T17:30:47.668Z,100489.19
2023-01-21T17:33:30.511Z,100472.63
2023-01-21T17:36:10.259Z,100501.06
2023-01-21T17:38:42.283Z,100499.66
2023-01-21T17:41:14.339Z,100505.06
2023-01-21T17:43:51.207Z,100505.75
2023-01-21T17:46:22.603Z,100503.16
2023-01-21T17:48:53.169Z,100506.31
2023-01-21T17:51:24.744Z,100500.97
2023-01-21T17:53:56.528Z,100498.66
2023-01-21T17:56:40.159Z,100499.72
2023-01-21T17:59:37.811Z,100506.13
2023-01-21T18:02:10.760Z,100502.06
2023-01-21T18:04:38.759Z,100505.78
2023-01-21T18:07:15.896Z,100502.03
2023-01-21T18:09:45.121Z,100504.38
2023-01-21T18:12:13.696Z,100505.75
2023-01-21T18:14:43.539Z,100496.56
2023-01-21T18:17:18.138Z,100503.63
2023-01-21T18:19:46.549Z,100504.44
2023-01-21T18:22:23.204Z,100499.84
2023-01-21T18:24:51.567Z,100510.25
2023-01-21T18:27:21.040Z,100508.31
2023-01-21T18:29:52.193Z,100504.78
2023-01-21T18:32:20.305Z,100507.56
2023-01-21T18:34:48.581Z,100508.47
2023-01-21T18:37:18.560Z,100510.06
2023-01-21T18:39:46.662Z,100511.91
2023-01-21T18:42:16.158Z,100511.91
2023-01-21T18:44:45.046Z,100510.66
2023-01-21T18:47:17.136Z,100520.66
2023-01-21T18:49:45.535Z,100525.81
2023-01-21T18:52:16.125Z,100527.59
2023-01-21T18:54:44.139Z,100532.78
2023-01-21T18:57:13.288Z,100544.41
2023-01-21T18:59:41.436Z,100525.38
2023-01-21T19:02:17.204Z,100539.22
2023-01-21T19:04:46.559Z,100537.34
2023-01-21T19:07:16.426Z,100542.00
2023-01-21T19:09:46.536Z,100536.50
2023-01-21T19:12:15.672Z,100531.31
2023-01-21T19:14:43.882Z,100538.72
2023-01-21T19:17:14.950Z,100538.53
2023-01-21T19:19:44.153Z,100549.56
2023-01-21T19:22:15.760Z,100557.97
2023-01-21T19:24:44.756Z,100558.72
2023-01-21T19:27:18.276Z,100561.31
2023-01-21T19:29:47.300Z,100544.06
2023-01-21T19:32:17.822Z,100545.28
2023-01-21T19:34:46.548Z,100545.38
2023-01-21T19:37:16.782Z,100546.66
2023-01-21T19:39:45.772Z,100538.19
2023-01-21T19:42:16.580Z,100547.34
2023-01-21T19:44:45.264Z,100551.66
2023-01-21T19:47:21.975Z,100555.59
2023-01-21T19:49:50.853Z,100548.25
2023-01-21T19:52:19.142Z,100553.25
2023-01-21T19:54:47.123Z,100548.63
2023-01-21T19:57:15.993Z,100549.03
2023-01-21T19:59:46.635Z,100560.66
2023-01-21T20:02:17.617Z,100566.69
2023-01-21T20:04:46.777Z,100566.19
2023-01-21T20:07:17.009Z,100560.66
2023-01-21T20:09:46.189Z,100567.69
2023-01-21T20:12:14.248Z,100564.53
2023-01-21T20:14:42.280Z,100564.63
2023-01-21T20:17:14.007Z,100556.28
2023-01-21T20:19:43.693Z,100562.47
2023-01-21T20:22:13.563Z,100562.47
2023-01-21T20:24:41.969Z,100560.81
2023-01-21T20:27:14.630Z,100571.56
2023-01-21T20:29:49.670Z,100571.94
2023-01-21T20:32:23.697Z,100583.91
2023-01-21T20:34:53.068Z,100581.78
2023-01-21T20:37:21.164Z,100590.78
2023-01-21T20:39:49.155Z,100578.69
2023-01-21T20:42:17.105Z,100574.38
2023-01-21T20:44:45.063Z,100572.78
2023-01-21T20:47:13.479Z,100565.00
2023-01-21T20:49:41.486Z,100563.06
2023-01-21T20:52:12.366Z,100563.59
2023-01-21T20:54:40.431Z,100556.53
2023-01-21T20:57:13.377Z,100529.09
2023-01-21T20:59:41.345Z,100554.47
2023-01-21T21:02:12.680Z,100565.00
2023-01-21T21:04:40.985Z,100576.84
2023-01-21T21:07:15.531Z,100576.56
2023-01-21T21:09:43.474Z,100570.78
2023-01-21T21:12:11.495Z,100575.13
2023-01-21T21:14:39.420Z,100570.38
2023-01-21T21:17:11.701Z,100557.22
2023-01-21T21:19:39.598Z,100561.91
2023-01-21T21:22:07.869Z,100578.31
2023-01-21T21:24:37.187Z,100566.25
2023-01-21T21:27:05.198Z,100549.84
2023-01-21T21:29:33.111Z,100546.69
2023-01-21T21:32:02.242Z,100536.66
2023-01-21T21:34:30.190Z,100511.25
2023-01-21T21:36:58.053Z,100491.06
2023-01-21T21:39:25.960Z,100515.75
2023-01-21T21:42:09.106Z,100529.78
2023-01-21T21:44:39.011Z,100556.78
2023-01-21T21:47:24.135Z,100559.47
2023-01-21T21:49:52.018Z,100549.66
2023-01-21T21:52:19.949Z,100545.81
2023-01-21T21:54:47.885Z,100545.53
2023-01-21T21:57:17.181Z,100535.13
2023-01-21T21:59:45.150Z,100532.69
2023-01-21T22:02:13.517Z,100524.28
2023-01-21T22:04:41.471Z,100515.97
2023-01-21T22:07:09.376Z,100546.84
2023-01-21T22:09:37.279Z,100535.72
2023-01-21T22:12:05.711Z,100524.47
2023-01-21T22:14:35.019Z,100549.84
2023-01-21T22:17:02.995Z,100524.47
2023-01-21T22:19:30.947Z,100544.97
2023-01-21T22:21:58.838Z,100577.34
2023-01-21T22:24:26.751Z,100555.66
2023-01-21T22:26:54.637Z,100530.75
2023-01-21T22:29:22.570Z,100519.84
2023-01-21T22:31:51.972Z,100527.03
2023-01-21T22:34:19.935Z,100553.56
2023-01-21T22:36:48.272Z,100614.25
2023-01-21T22:39:16.389Z,100636.66
2023-01-21T22:41:44.413Z,100613.75
2023-01-21T22:44:12.332Z,100580.03
2023-01-21T22:46:40.272Z,100558.28
2023-01-21T22:49:11.622Z,100592.50
2023-01-21T22:51:39.548Z,100642.75
2023-01-21T22:54:07.681Z,100606.97
2023-01-21T22:56:51.259Z,100594.44
2023-01-21T22:59:20.436Z,100591.94
2023-01-21T23:01:48.859Z,100581.53
2023-01-21T23:04:18.220Z,100535.06
2023-01-21T23:06:48.624Z,100576.16
2023-01-21T23:09:17.048Z,100582.44
2023-01-21T23:11:45.462Z,100563.31
2023-01-21T23:14:13.518Z,100567.03
2023-01-21T23:16:41.412Z,100591.38
2023-01-21T23:19:09.286Z,100597.81
2023-01-21T23:21:38.810Z,100542.00
2023-01-21T23:24:07.389Z,100619.25
2023-01-21T23:26:35.353Z,100603.25
2023-01-21T23:29:03.283Z,100627.84
2023-01-21T23:31:31.289Z,100629.00
2023-01-21T23:33:59.356Z,100638.75
2023-01-21T23:36:27.275Z,100653.22
2023-01-21T23:38:56.647Z,100639.09
2023-01-21T23:41:24.576Z,100634.13
2023-01-21T23:43:52.482Z,100617.78
2023-01-21T23:46:20.570Z,100671.72
2023-01-21T23:48:49.098Z,100670.50
2023-01-21T23:51:18.808Z,100660.84
2023-01-21T23:53:47.704Z,100691.31
2023-01-21T23:56:20.451Z,100694.75
2023-01-21T23:58:48.736Z,100691.13
